Time;durP1;ratioP1;P1;durP2;ratioP2;P2;SDS_P1;SDS_P2;PMS_P1;PMS_P2;Temp;Humidity;BMP_temperature;BMP_pressure;BME280_temperature;BME280_humidity;BME280_pressure;Samples;Min_cycle;Max_cycle;Signal;HPM_P1;HPM_P2
2022/01/02 00:00:17;;;;;;;24.15;6.82;;;11.00;99.90;;;;;;4964125;28;20067;-79
2022/01/02 00:02:50;;;;;;;25.52;6.35;;;11.00;99.90;;;;;;4970207;28;20705;-79
2022/01/02 00:05:20;;;;;;;17.02;7.15;;;10.90;99.90;;;;;;4973097;28;20585;-79
2022/01/02 00:08:03;;;;;;;21.65;6.60;;;10.90;99.90;;;;;;4961640;28;20097;-79
2022/01/02 00:10:32;;;;;;;18.55;6.20;;;10.90;99.90;;;;;;4974220;28;20062;-79
2022/01/02 00:13:00;;;;;;;19.83;6.30;;;10.90;99.90;;;;;;4976289;28;20089;-79
2022/01/02 00:15:28;;;;;;;22.63;7.80;;;10.90;99.90;;;;;;4969642;28;20752;-79
2022/01/02 00:17:57;;;;;;;26.63;7.40;;;11.10;99.90;;;;;;4958229;28;20484;-79
2022/01/02 00:20:32;;;;;;;21.58;6.85;;;11.00;99.90;;;;;;4971505;28;20780;-79
2022/01/02 00:23:00;;;;;;;24.92;6.82;;;11.00;99.90;;;;;;4966010;28;20444;-79
2022/01/02 00:25:32;;;;;;;15.70;6.63;;;11.10;99.90;;;;;;4976505;28;20055;-79
2022/01/02 00:28:00;;;;;;;19.70;6.20;;;11.10;99.90;;;;;;4960722;28;20082;-79
2022/01/02 00:30:40;;;;;;;17.38;6.38;;;11.10;99.90;;;;;;4953756;28;20051;-79
2022/01/02 00:33:08;;;;;;;17.52;6.40;;;11.10;99.90;;;;;;4965871;28;20055;-79
2022/01/02 00:35:36;;;;;;;16.17;6.85;;;11.10;99.90;;;;;;4953867;28;20082;-79
2022/01/02 00:38:15;;;;;;;21.77;6.90;;;11.10;99.90;;;;;;4972869;28;20078;-80
2022/01/02 00:40:45;;;;;;;16.83;5.45;;;11.10;99.90;;;;;;4972913;28;20869;-80
2022/01/02 00:43:21;;;;;;;19.80;6.63;;;11.10;99.90;;;;;;4977747;28;20096;-79
2022/01/02 00:45:51;;;;;;;19.73;7.15;;;11.10;99.90;;;;;;4974740;28;20141;-80
2022/01/02 00:48:24;;;;;;;16.38;5.53;;;11.10;99.90;;;;;;4962884;28;20043;-79
2022/01/02 00:50:56;;;;;;;14.82;4.95;;;11.10;99.90;;;;;;4953954;28;20166;-79
2022/01/02 00:53:25;;;;;;;15.75;5.45;;;11.00;99.90;;;;;;4975150;28;20092;-79
2022/01/02 00:56:00;;;;;;;17.42;5.72;;;11.00;99.90;;;;;;4966934;28;20055;-80
2022/01/02 00:58:38;;;;;;;8.52;4.72;;;11.00;99.90;;;;;;4971648;28;20140;-80
2022/01/02 01:01:06;;;;;;;15.35;6.10;;;10.90;99.90;;;;;;4984139;28;20127;-80
2022/01/02 01:03:34;;;;;;;17.63;5.38;;;10.90;99.90;;;;;;4972167;28;20051;-80
2022/01/02 01:06:04;;;;;;;16.27;5.85;;;10.90;99.90;;;;;;4954716;28;20701;-80
2022/01/02 01:08:32;;;;;;;20.70;5.43;;;11.00;99.90;;;;;;4955078;28;20089;-79
2022/01/02 01:11:05;;;;;;;14.27;5.25;;;11.00;99.90;;;;;;4953367;28;20057;-80
2022/01/02 01:13:32;;;;;;;18.70;4.80;;;11.00;99.90;;;;;;4976940;28;20132;-80
2022/01/02 01:15:59;;;;;;;14.95;6.32;;;11.00;99.90;;;;;;4972128;28;20126;-79
2022/01/02 01:18:26;;;;;;;11.13;4.95;;;11.10;99.90;;;;;;4971467;28;20101;-79
2022/01/02 01:20:54;;;;;;;17.45;5.15;;;11.10;99.90;;;;;;4965314;28;20129;-79
2022/01/02 01:23:21;;;;;;;12.50;5.10;;;11.20;99.90;;;;;;4959771;28;20094;-80
2022/01/02 01:25:49;;;;;;;8.77;4.32;;;11.20;99.90;;;;;;4950339;28;20205;-80
2022/01/02 01:28:17;;;;;;;16.38;4.40;;;11.10;99.90;;;;;;4943953;28;20043;-80
2022/01/02 01:30:44;;;;;;;16.30;4.20;;;11.10;99.90;;;;;;4958427;28;20190;-80
2022/01/02 01:33:11;;;;;;;11.73;4.63;;;11.10;99.90;;;;;;4968559;28;20074;-79
2022/01/02 01:35:40;;;;;;;13.90;4.57;;;11.00;99.90;;;;;;4970937;28;20051;-79
2022/01/02 01:38:07;;;;;;;14.05;4.72;;;11.10;99.90;;;;;;4954089;28;20399;-80
2022/01/02 01:40:40;;;;;;;16.63;5.85;;;11.00;99.90;;;;;;4970874;28;20149;-80
2022/01/02 01:43:09;;;;;;;14.93;4.80;;;11.00;99.90;;;;;;4957082;28;20118;-79
2022/01/02 01:45:36;;;;;;;11.68;4.50;;;11.10;99.90;;;;;;4959984;28;20162;-79
2022/01/02 01:48:05;;;;;;;18.25;4.50;;;11.00;99.90;;;;;;4951360;28;20134;-79
2022/01/02 01:50:42;;;;;;;13.82;3.95;;;11.00;99.90;;;;;;4967061;28;20137;-80
2022/01/02 01:53:09;;;;;;;12.00;4.00;;;11.10;99.90;;;;;;4957553;28;20154;-80
2022/01/02 01:55:37;;;;;;;16.90;4.40;;;11.10;99.90;;;;;;4955429;28;20081;-79
2022/01/02 01:58:06;;;;;;;13.75;4.22;;;11.10;99.90;;;;;;4958272;28;20138;-79
2022/01/02 02:00:34;;;;;;;13.73;4.22;;;11.10;99.90;;;;;;4961832;28;20057;-79
2022/01/02 02:03:02;;;;;;;26.42;6.18;;;11.00;99.90;;;;;;4984887;28;20074;-80
2022/01/02 02:05:29;;;;;;;10.60;4.00;;;11.00;99.90;;;;;;4972378;28;20054;-80
2022/01/02 02:07:56;;;;;;;14.85;4.65;;;11.00;99.90;;;;;;4972024;28;20046;-79
2022/01/02 02:10:27;;;;;;;17.88;4.43;;;11.00;99.90;;;;;;4970417;28;20129;-79
2022/01/02 02:12:57;;;;;;;12.00;4.03;;;11.10;99.90;;;;;;4968223;28;20046;-79
2022/01/02 02:15:25;;;;;;;11.40;4.43;;;11.10;99.90;;;;;;4981227;28;20046;-79
2022/01/02 02:17:53;;;;;;;13.90;4.30;;;11.10;99.90;;;;;;4952574;28;20046;-79
2022/01/02 02:20:28;;;;;;;11.65;4.15;;;11.10;99.90;;;;;;4978717;28;20137;-79
2022/01/02 02:22:57;;;;;;;17.15;3.83;;;11.20;99.90;;;;;;4985401;28;20415;-79
2022/01/02 02:25:29;;;;;;;11.23;4.07;;;11.20;99.90;;;;;;4992301;28;20054;-79
2022/01/02 02:28:01;;;;;;;13.85;4.07;;;11.20;99.90;;;;;;4979487;28;20054;-79
2022/01/02 02:30:31;;;;;;;10.45;5.22;;;11.20;99.90;;;;;;4972997;28;20057;-79
2022/01/02 02:33:00;;;;;;;15.32;4.13;;;11.30;99.90;;;;;;4985879;28;20042;-79
2022/01/02 02:35:29;;;;;;;9.32;3.50;;;11.30;99.90;;;;;;4988442;28;20474;-79
2022/01/02 02:37:57;;;;;;;7.20;3.42;;;11.40;99.90;;;;;;4959251;28;20196;-79
2022/01/02 02:40:25;;;;;;;11.60;3.17;;;11.30;99.90;;;;;;4985597;28;21127;-79
2022/01/02 02:42:58;;;;;;;18.00;4.25;;;11.40;99.90;;;;;;4963689;28;20074;-79
2022/01/02 02:51:19;;;;;;;12.52;3.92;;;11.50;99.90;;;;;;4969808;28;20811;-79
2022/01/02 02:53:48;;;;;;;8.05;3.60;;;11.60;99.90;;;;;;4973073;28;20248;-79
2022/01/02 02:56:29;;;;;;;14.00;3.97;;;11.50;99.90;;;;;;4970689;28;20038;-79
2022/01/02 02:58:58;;;;;;;26.67;4.53;;;11.60;99.90;;;;;;4973278;28;20129;-79
2022/01/02 03:01:27;;;;;;;12.65;5.22;;;11.60;99.90;;;;;;4969216;28;20133;-79
2022/01/02 03:03:55;;;;;;;11.90;3.42;;;11.50;99.90;;;;;;4987783;28;20117;-79
2022/01/02 03:06:22;;;;;;;11.85;3.13;;;11.60;99.90;;;;;;4977495;28;20101;-79
2022/01/02 03:08:50;;;;;;;9.18;3.42;;;11.60;99.90;;;;;;4982209;28;20161;-79
2022/01/02 03:11:20;;;;;;;9.45;3.72;;;11.60;99.90;;;;;;4970618;28;20105;-79
2022/01/02 03:13:49;;;;;;;8.63;3.58;;;11.60;99.90;;;;;;4978147;28;20093;-79
2022/01/02 03:16:17;;;;;;;11.85;3.55;;;11.60;99.90;;;;;;4959837;28;20905;-79
2022/01/02 03:18:44;;;;;;;15.23;3.60;;;11.50;99.90;;;;;;4970586;28;20050;-80
2022/01/02 03:21:11;;;;;;;13.35;3.90;;;11.50;99.90;;;;;;4964691;28;20090;-79
2022/01/02 03:23:38;;;;;;;7.05;3.95;;;12.00;99.90;;;;;;4977977;28;20145;-80
2022/01/02 03:26:06;;;;;;;9.82;4.00;;;11.30;99.90;;;;;;4974654;28;20130;-79
2022/01/02 03:28:32;;;;;;;17.65;4.28;;;11.30;99.90;;;;;;4970091;28;20137;-80
2022/01/02 03:30:59;;;;;;;12.15;4.05;;;11.20;99.90;;;;;;4974196;28;20136;-80
2022/01/02 03:33:27;;;;;;;7.97;4.10;;;11.20;99.90;;;;;;4988476;28;20081;-79
2022/01/02 03:35:54;;;;;;;14.57;4.40;;;11.10;99.90;;;;;;4954411;28;20468;-80
2022/01/02 03:38:21;;;;;;;12.38;5.15;;;11.00;99.90;;;;;;4963164;28;20137;-80
2022/01/02 03:40:48;;;;;;;18.15;4.60;;;11.00;99.90;;;;;;4973515;28;20561;-80
2022/01/02 03:43:15;;;;;;;16.15;4.32;;;11.20;99.90;;;;;;4977848;28;20046;-80
2022/01/02 03:45:41;;;;;;;15.07;5.20;;;11.00;99.90;;;;;;4977730;28;20133;-81
2022/01/02 03:48:08;;;;;;;11.10;4.53;;;10.90;99.90;;;;;;4974353;28;20050;-81
2022/01/02 03:50:35;;;;;;;16.50;5.68;;;10.90;99.90;;;;;;4975942;28;20766;-80
2022/01/02 03:53:03;;;;;;;15.38;6.32;;;10.90;99.90;;;;;;4976884;28;20475;-81
2022/01/02 03:55:29;;;;;;;19.15;5.07;;;10.80;99.90;;;;;;4997045;28;20050;-81
2022/01/02 03:57:56;;;;;;;28.50;6.85;;;10.90;99.90;;;;;;4988355;28;20757;-81
2022/01/02 04:00:23;;;;;;;16.05;5.45;;;10.90;99.90;;;;;;4974017;28;20078;-82
2022/01/02 04:02:50;;;;;;;15.85;6.25;;;11.10;99.90;;;;;;4962075;28;20554;-81
2022/01/02 04:05:17;;;;;;;15.68;6.53;;;11.30;99.90;;;;;;4977255;28;20443;-81
2022/01/02 04:07:45;;;;;;;17.95;5.75;;;10.80;99.90;;;;;;4977417;28;20141;-81
2022/01/02 04:10:16;;;;;;;16.70;6.15;;;10.80;99.90;;;;;;4982598;28;20096;-81
2022/01/02 04:12:43;;;;;;;13.50;6.43;;;10.70;99.90;;;;;;4969823;28;20089;-81
2022/01/02 04:15:14;;;;;;;18.23;7.07;;;10.80;99.90;;;;;;4973241;28;20091;-81
2022/01/02 04:17:42;;;;;;;18.67;6.90;;;11.10;99.90;;;;;;4961678;28;20054;-81
2022/01/02 04:20:11;;;;;;;19.75;7.20;;;10.80;99.90;;;;;;4974667;28;20134;-81
2022/01/02 04:22:39;;;;;;;19.70;6.53;;;11.30;99.90;;;;;;4974791;28;20724;-82
2022/01/02 04:25:06;;;;;;;22.02;7.25;;;10.80;99.90;;;;;;4994080;28;20108;-81
2022/01/02 04:27:33;;;;;;;16.52;6.90;;;10.80;99.90;;;;;;4976620;28;20082;-81
2022/01/02 04:30:00;;;;;;;19.67;6.90;;;10.90;99.90;;;;;;4988880;28;20085;-81
2022/01/02 04:32:30;;;;;;;19.42;6.78;;;10.90;99.90;;;;;;4976582;28;20093;-82
2022/01/02 04:34:57;;;;;;;18.80;6.68;;;10.90;99.90;;;;;;4972782;28;20078;-81
2022/01/02 04:37:24;;;;;;;22.90;7.18;;;10.80;99.90;;;;;;4983765;28;20073;-81
2022/01/02 04:39:51;;;;;;;20.80;6.88;;;10.80;99.90;;;;;;4993795;28;20488;-81
2022/01/02 04:42:17;;;;;;;18.27;7.22;;;11.10;99.90;;;;;;4976250;28;20833;-81
2022/01/02 04:44:44;;;;;;;23.92;8.23;;;11.20;99.90;;;;;;4990118;28;20073;-81
2022/01/02 04:47:11;;;;;;;18.60;6.95;;;10.70;99.90;;;;;;4981380;28;20085;-81
2022/01/02 04:49:38;;;;;;;16.65;7.28;;;10.70;99.90;;;;;;4976456;28;20078;-82
2022/01/02 04:52:04;;;;;;;19.45;7.50;;;10.80;99.90;;;;;;4976193;28;20136;-81
2022/01/02 04:54:31;;;;;;;21.40;7.53;;;10.80;99.90;;;;;;4981459;28;20104;-81
2022/01/02 04:56:58;;;;;;;23.17;7.75;;;10.80;99.90;;;;;;4963590;28;20145;-81
2022/01/02 04:59:24;;;;;;;24.13;8.43;;;10.80;99.90;;;;;;4981722;28;20074;-81
2022/01/02 05:01:52;;;;;;;24.60;8.95;;;10.80;99.90;;;;;;4955940;28;20153;-81
2022/01/02 05:04:19;;;;;;;18.40;7.50;;;10.80;99.90;;;;;;4971773;28;20046;-80
2022/01/02 05:06:45;;;;;;;23.42;8.57;;;10.80;99.90;;;;;;4974794;28;20088;-81
2022/01/02 05:09:13;;;;;;;31.17;9.27;;;10.70;99.90;;;;;;4984931;28;20631;-81
2022/01/02 05:11:40;;;;;;;22.48;8.60;;;10.80;99.90;;;;;;4975974;28;20133;-81
2022/01/02 05:14:07;;;;;;;18.25;8.63;;;10.70;99.90;;;;;;4975934;28;20129;-81
2022/01/02 05:16:33;;;;;;;19.88;8.23;;;10.70;99.90;;;;;;4976052;28;20750;-82
2022/01/02 05:19:00;;;;;;;20.52;8.35;;;10.70;99.90;;;;;;4975932;28;20133;-82
2022/01/02 05:21:27;;;;;;;21.80;8.70;;;10.70;99.90;;;;;;4993195;28;20081;-80
2022/01/02 05:23:54;;;;;;;21.50;8.00;;;10.80;99.90;;;;;;4981789;28;20129;-81
2022/01/02 05:26:20;;;;;;;23.58;8.15;;;10.60;99.90;;;;;;4964912;28;20089;-80
2022/01/02 05:28:47;;;;;;;22.35;8.75;;;10.70;99.90;;;;;;4963789;28;20082;-80
2022/01/02 05:31:14;;;;;;;19.75;8.45;;;10.70;99.90;;;;;;4977307;28;20133;-80
2022/01/02 05:33:41;;;;;;;24.30;8.68;;;10.70;99.90;;;;;;4984962;28;20054;-80
2022/01/02 05:36:07;;;;;;;23.52;8.80;;;11.20;99.90;;;;;;4981903;28;20149;-80
2022/01/02 05:38:34;;;;;;;32.90;9.73;;;10.70;99.90;;;;;;4960965;28;20070;-80
2022/01/02 05:41:01;;;;;;;24.67;9.25;;;10.70;99.90;;;;;;4971286;28;20125;-80
2022/01/02 05:43:29;;;;;;;34.25;9.90;;;10.70;99.90;;;;;;4993803;28;20054;-80
2022/01/02 05:45:56;;;;;;;27.90;8.90;;;10.80;99.90;;;;;;4992906;28;20416;-80
2022/01/02 05:48:23;;;;;;;23.80;9.23;;;10.70;99.90;;;;;;4973569;28;20141;-81
2022/01/02 05:50:50;;;;;;;29.65;9.43;;;10.70;99.90;;;;;;4956324;28;20134;-81
2022/01/02 05:53:16;;;;;;;24.80;8.95;;;10.60;99.90;;;;;;4965838;28;20159;-81
2022/01/02 05:55:44;;;;;;;27.02;9.07;;;10.60;99.90;;;;;;4976006;28;20046;-81
2022/01/02 05:58:11;;;;;;;28.90;10.63;;;10.70;99.90;;;;;;4983646;28;20050;-81
2022/01/02 06:00:37;;;;;;;26.75;9.43;;;10.60;99.90;;;;;;4975518;28;20046;-81
2022/01/02 06:03:04;;;;;;;26.75;8.93;;;10.70;99.90;;;;;;4975777;28;20058;-81
2022/01/02 06:05:31;;;;;;;28.30;10.00;;;10.60;99.90;;;;;;4989821;28;20051;-81
2022/01/02 06:07:58;;;;;;;31.30;9.50;;;10.70;99.90;;;;;;4966305;28;20093;-81
2022/01/02 06:10:25;;;;;;;28.02;10.40;;;10.80;99.90;;;;;;4972515;28;20141;-81
2022/01/02 06:12:51;;;;;;;27.02;9.50;;;10.90;99.90;;;;;;4975824;28;20137;-81
2022/01/02 06:15:18;;;;;;;33.42;9.75;;;10.60;99.90;;;;;;4984962;28;20539;-81
2022/01/02 06:17:45;;;;;;;25.48;9.95;;;10.70;99.90;;;;;;4993232;28;20125;-81
2022/01/02 06:20:12;;;;;;;28.60;9.77;;;10.70;99.90;;;;;;4971267;28;20043;-81
2022/01/02 06:22:40;;;;;;;33.85;9.93;;;10.70;99.90;;;;;;4979487;28;20046;-80
2022/01/02 06:25:07;;;;;;;31.02;10.55;;;10.60;99.90;;;;;;4986626;28;20124;-80
2022/01/02 06:27:34;;;;;;;23.25;10.27;;;10.70;99.90;;;;;;4995069;28;20132;-80
2022/01/02 06:30:01;;;;;;;32.30;10.80;;;10.80;99.90;;;;;;4983284;28;20054;-80
2022/01/02 06:32:28;;;;;;;25.02;10.25;;;10.90;99.90;;;;;;4979196;28;20057;-80
2022/01/02 06:34:54;;;;;;;27.10;9.63;;;10.70;99.90;;;;;;4955027;28;20138;-80
2022/01/02 06:37:21;;;;;;;28.02;12.52;;;10.70;99.90;;;;;;4969810;28;20089;-80
2022/01/02 06:39:48;;;;;;;23.70;9.88;;;10.70;99.90;;;;;;4973194;28;20424;-79
2022/01/02 06:42:15;;;;;;;34.58;12.02;;;10.80;99.90;;;;;;4955587;28;20050;-79
2022/01/02 06:44:41;;;;;;;39.97;11.63;;;10.70;99.90;;;;;;4971068;28;20143;-80
2022/01/02 06:47:08;;;;;;;46.42;11.45;;;10.80;99.90;;;;;;4972862;28;20060;-80
2022/01/02 06:49:35;;;;;;;36.47;10.88;;;10.70;99.90;;;;;;4967720;28;20133;-80
2022/01/02 06:52:03;;;;;;;36.85;12.05;;;10.70;99.90;;;;;;4975092;28;20499;-80
2022/01/02 06:54:30;;;;;;;40.85;11.90;;;10.80;99.90;;;;;;4982498;28;20610;-80
2022/01/02 06:56:56;;;;;;;42.95;12.15;;;10.70;99.90;;;;;;4974503;28;20413;-80
2022/01/02 06:59:23;;;;;;;33.75;11.60;;;10.60;99.90;;;;;;4973110;28;20153;-79
2022/01/02 07:01:50;;;;;;;45.50;11.95;;;10.80;99.90;;;;;;4970991;28;20050;-79
2022/01/02 07:04:17;;;;;;;29.52;11.95;;;10.70;99.90;;;;;;4987160;28;20053;-79
2022/01/02 07:06:44;;;;;;;31.42;11.27;;;10.60;99.90;;;;;;4988776;28;20133;-79
2022/01/02 07:09:11;;;;;;;38.45;11.65;;;10.70;99.90;;;;;;4988163;28;20054;-79
2022/01/02 07:11:37;;;;;;;36.67;12.25;;;10.70;99.90;;;;;;4991870;28;20081;-79
2022/01/02 07:14:04;;;;;;;36.45;12.45;;;10.60;99.90;;;;;;4973039;28;20082;-79
2022/01/02 07:16:31;;;;;;;37.50;13.38;;;10.70;99.90;;;;;;4970548;28;20411;-79
2022/01/02 07:18:58;;;;;;;30.08;12.40;;;10.60;99.90;;;;;;4963404;28;20134;-80
2022/01/02 07:21:24;;;;;;;32.97;12.38;;;10.50;99.90;;;;;;4958988;28;20074;-80
2022/01/02 07:23:54;;;;;;;39.95;12.15;;;10.70;99.90;;;;;;4982775;28;20104;-79
2022/01/02 07:26:21;;;;;;;40.75;13.00;;;10.60;99.90;;;;;;4962456;28;20491;-80
2022/01/02 07:28:48;;;;;;;32.65;12.57;;;10.90;99.90;;;;;;4967764;28;20086;-79
2022/01/02 07:31:14;;;;;;;39.47;13.32;;;10.60;99.90;;;;;;4980791;28;20488;-79
2022/01/02 07:33:41;;;;;;;39.35;12.15;;;10.70;99.90;;;;;;4979951;28;20388;-79
2022/01/02 07:36:08;;;;;;;35.63;12.80;;;10.70;99.90;;;;;;4955507;28;20115;-79
2022/01/02 07:38:35;;;;;;;33.70;14.15;;;10.70;99.90;;;;;;4978215;28;20141;-79
2022/01/02 07:41:02;;;;;;;41.92;14.50;;;10.70;99.90;;;;;;4974595;28;20081;-79
2022/01/02 07:43:28;;;;;;;49.53;14.93;;;10.70;99.90;;;;;;4974559;28;20082;-79
2022/01/02 07:45:55;;;;;;;46.33;14.05;;;10.80;99.90;;;;;;4988165;28;20116;-79
2022/01/02 07:48:22;;;;;;;39.58;14.13;;;10.70;99.90;;;;;;4982010;28;20054;-79
2022/01/02 07:50:49;;;;;;;44.20;14.18;;;10.70;99.90;;;;;;4966287;28;20093;-79
2022/01/02 07:53:17;;;;;;;50.67;14.38;;;11.00;99.90;;;;;;4990038;28;20112;-79
2022/01/02 07:55:44;;;;;;;35.40;13.32;;;10.70;99.90;;;;;;4973644;28;20134;-79
2022/01/02 07:58:12;;;;;;;35.88;14.23;;;10.70;99.90;;;;;;4972509;28;20142;-79
2022/01/02 08:00:40;;;;;;;44.22;14.82;;;10.70;99.90;;;;;;4990700;28;20089;-79
2022/01/02 08:03:07;;;;;;;43.60;14.32;;;10.70;99.90;;;;;;4961140;28;20082;-79
2022/01/02 08:05:38;;;;;;;41.92;14.10;;;10.70;99.90;;;;;;4974438;28;20118;-79
2022/01/02 08:08:06;;;;;;;43.80;14.50;;;10.70;99.90;;;;;;4975261;28;20085;-79
2022/01/02 08:10:33;;;;;;;38.72;13.63;;;10.70;99.90;;;;;;4979012;28;20082;-80
2022/01/02 08:13:00;;;;;;;43.25;15.05;;;10.70;99.90;;;;;;4974139;28;20077;-79
2022/01/02 08:15:28;;;;;;;40.42;13.82;;;10.70;99.90;;;;;;4973641;28;20888;-79
2022/01/02 08:17:57;;;;;;;44.45;13.75;;;10.70;99.90;;;;;;4974254;28;20046;-80
2022/01/02 08:20:24;;;;;;;36.35;13.13;;;10.80;99.90;;;;;;4978212;28;20452;-80
2022/01/02 08:22:52;;;;;;;38.80;14.10;;;10.70;99.90;;;;;;4993010;28;20074;-80
2022/01/02 08:25:20;;;;;;;37.17;11.93;;;10.60;99.90;;;;;;4979648;28;20058;-79
2022/01/02 08:27:47;;;;;;;35.25;12.80;;;10.80;99.90;;;;;;4970682;28;20154;-79
2022/01/02 08:30:15;;;;;;;36.15;13.23;;;10.70;99.90;;;;;;4973998;28;20074;-80
2022/01/02 08:32:42;;;;;;;32.67;13.30;;;10.70;99.90;;;;;;4981401;28;20055;-79
2022/01/02 08:35:09;;;;;;;39.60;13.40;;;10.70;99.90;;;;;;4971958;28;20142;-79
2022/01/02 08:37:36;;;;;;;34.88;12.68;;;10.70;99.90;;;;;;4990848;28;20129;-79
2022/01/02 08:40:03;;;;;;;33.00;12.07;;;10.80;99.90;;;;;;4972538;28;20146;-79
2022/01/02 08:42:29;;;;;;;32.03;11.40;;;10.90;99.90;;;;;;4976442;28;20554;-80
2022/01/02 08:44:56;;;;;;;33.05;12.18;;;10.80;99.90;;;;;;4978609;28;20109;-79
2022/01/02 08:47:25;;;;;;;31.10;11.30;;;10.80;99.90;;;;;;4973904;28;20093;-80
2022/01/02 08:50:06;;;;;;;34.35;12.48;;;10.80;99.90;;;;;;4970206;23;20050;-79
2022/01/02 08:52:33;;;;;;;34.08;11.10;;;11.00;99.90;;;;;;4976653;28;20073;-79
2022/01/02 08:54:59;;;;;;;32.83;11.68;;;11.00;99.90;;;;;;4991732;28;20132;-80
2022/01/02 08:57:26;;;;;;;24.10;10.88;;;11.20;99.90;;;;;;4965924;23;20062;-86
2022/01/02 08:59:53;;;;;;;32.33;10.85;;;11.00;99.90;;;;;;4953658;28;20058;-87
2022/01/02 09:02:21;;;;;;;26.88;10.85;;;11.20;99.90;;;;;;4943119;28;20051;-87
2022/01/02 09:04:48;;;;;;;29.70;11.07;;;11.20;99.90;;;;;;4975132;28;20085;-86
2022/01/02 09:07:21;;;;;;;25.88;10.85;;;11.20;99.90;;;;;;4974948;28;20047;-86
2022/01/02 09:09:48;;;;;;;31.52;11.10;;;11.20;99.90;;;;;;4957470;28;20420;-86
2022/01/02 09:12:15;;;;;;;39.55;11.05;;;11.30;99.90;;;;;;4977081;28;20129;-87
2022/01/02 09:14:42;;;;;;;29.40;10.60;;;11.50;99.90;;;;;;4957409;28;20089;-87
2022/01/02 09:17:10;;;;;;;26.48;11.45;;;11.40;99.90;;;;;;4957688;28;20047;-85
2022/01/02 09:19:53;;;;;;;24.40;10.40;;;11.40;99.90;;;;;;4974836;28;20403;-86
2022/01/02 09:22:20;;;;;;;29.45;10.15;;;11.40;99.90;;;;;;4953232;28;20047;-86
2022/01/02 09:24:54;;;;;;;37.55;11.23;;;11.30;99.90;;;;;;4978780;28;20776;-86
2022/01/02 09:27:21;;;;;;;29.73;10.20;;;11.40;99.90;;;;;;4955100;28;20799;-87
2022/01/02 09:29:49;;;;;;;28.50;10.15;;;11.40;99.90;;;;;;4956881;28;20108;-87
2022/01/02 09:32:16;;;;;;;25.10;9.85;;;11.40;99.90;;;;;;4956626;28;20753;-86
2022/01/02 09:34:49;;;;;;;27.55;9.77;;;11.50;99.90;;;;;;4974965;28;20133;-86
2022/01/02 09:37:16;;;;;;;28.05;10.98;;;11.40;99.90;;;;;;4957554;28;20075;-86
2022/01/02 09:39:43;;;;;;;28.10;10.15;;;11.40;99.90;;;;;;4945909;28;20137;-89
2022/01/02 09:42:12;;;;;;;25.90;10.45;;;11.40;99.90;;;;;;4957507;28;20141;-86
2022/01/02 09:44:49;;;;;;;27.88;10.85;;;11.50;99.90;;;;;;4972885;28;20138;-83
2022/01/02 09:47:21;;;;;;;30.45;9.70;;;11.50;99.90;;;;;;4954109;28;20063;-82
2022/01/02 09:49:49;;;;;;;25.98;9.48;;;11.50;99.90;;;;;;4962755;28;20055;-82
2022/01/02 09:55:33;;;;;;;23.38;9.30;;;11.40;99.90;;;;;;4935320;29;20078;-84
2022/01/02 09:58:00;;;;;;;27.00;10.43;;;11.60;99.90;;;;;;4930354;29;20056;-82
2022/01/02 10:00:28;;;;;;;33.42;10.00;;;11.60;99.90;;;;;;4917474;29;20047;-82
2022/01/02 10:03:05;;;;;;;30.35;9.57;;;11.80;99.90;;;;;;4939861;29;20508;-82
2022/01/02 10:05:56;;;;;;;31.88;10.73;;;11.80;99.90;;;;;;4916267;29;20800;-81
2022/01/02 10:08:28;;;;;;;29.92;9.32;;;11.90;99.90;;;;;;4929886;29;20056;-81
2022/01/02 10:11:03;;;;;;;29.88;10.05;;;11.90;99.90;;;;;;4912467;29;20325;-80
2022/01/02 10:13:37;;;;;;;23.27;8.80;;;11.90;99.90;;;;;;4928248;29;20056;-83
2022/01/02 10:16:04;;;;;;;26.95;9.73;;;11.90;99.90;;;;;;4930784;29;20112;-81
2022/01/02 10:18:31;;;;;;;25.42;9.10;;;11.80;99.90;;;;;;4934653;29;20118;-81
2022/01/02 10:21:00;;;;;;;28.48;9.48;;;11.90;99.90;;;;;;4916938;29;20135;-80
2022/01/02 10:23:27;;;;;;;30.88;9.32;;;11.90;99.90;;;;;;4936538;29;20555;-80
2022/01/02 10:26:00;;;;;;;28.27;9.15;;;11.90;99.90;;;;;;4946661;23;20059;-80
2022/01/02 10:28:33;;;;;;;23.98;9.48;;;12.00;99.90;;;;;;4967250;28;20051;-81
2022/01/02 10:31:12;;;;;;;21.70;8.60;;;12.00;99.90;;;;;;4949126;28;20134;-81
2022/01/02 10:33:54;;;;;;;24.00;8.25;;;11.90;99.90;;;;;;4936113;29;20047;-80
2022/01/02 10:36:31;;;;;;;23.42;8.15;;;12.00;99.90;;;;;;4935366;29;20071;-80
2022/01/02 10:39:19;;;;;;;31.17;8.23;;;12.20;99.90;;;;;;4935670;29;20070;-80
2022/01/02 10:41:51;;;;;;;21.10;8.00;;;12.10;99.90;;;;;;4932519;29;20055;-80
2022/01/02 10:44:33;;;;;;;17.55;8.32;;;12.10;99.90;;;;;;4956288;28;20139;-83
2022/01/02 10:47:21;;;;;;;32.13;8.85;;;12.10;99.90;;;;;;4933778;29;20503;-84
2022/01/02 10:50:07;;;;;;;26.10;8.32;;;12.10;99.90;;;;;;4935487;29;20054;-84
2022/01/02 10:52:39;;;;;;;18.83;7.00;;;12.00;99.90;;;;;;4935738;29;20091;-85
2022/01/02 10:55:28;;;;;;;26.75;7.45;;;12.00;99.90;;;;;;4928896;28;20130;-85
2022/01/02 10:57:57;;;;;;;23.33;7.53;;;12.10;99.90;;;;;;4934797;29;20043;-85
2022/01/02 11:00:27;;;;;;;48.50;10.00;;;12.40;99.90;;;;;;4950400;28;20082;-84
2022/01/02 11:02:54;;;;;;;70.53;11.93;;;11.80;99.90;;;;;;4932385;29;20083;-78
2022/01/02 11:05:28;;;;;;;28.83;7.68;;;12.10;99.90;;;;;;4932630;29;20070;-78
2022/01/02 11:08:02;;;;;;;23.20;7.22;;;12.20;99.90;;;;;;4934170;29;20440;-79
2022/01/02 11:10:33;;;;;;;24.05;7.15;;;12.20;99.90;;;;;;4951672;29;20142;-78
2022/01/02 11:13:05;;;;;;;19.55;6.22;;;12.10;99.90;;;;;;4931626;29;20071;-78
2022/01/02 11:15:33;;;;;;;23.20;7.53;;;12.10;99.90;;;;;;4951542;29;20133;-78
2022/01/02 11:18:00;;;;;;;17.98;6.70;;;12.20;99.90;;;;;;4933060;29;20043;-79
2022/01/02 11:20:30;;;;;;;18.45;6.00;;;12.20;99.90;;;;;;4932486;28;20075;-78
2022/01/02 11:23:17;;;;;;;18.08;6.43;;;12.20;99.90;;;;;;4933151;29;20047;-78
2022/01/02 11:26:00;;;;;;;16.98;6.22;;;12.30;99.90;;;;;;4945645;28;20070;-79
2022/01/02 11:28:40;;;;;;;28.23;6.57;;;12.30;99.90;;;;;;4933041;28;20059;-79
2022/01/02 11:31:27;;;;;;;25.55;6.75;;;12.30;99.90;;;;;;4934123;28;20106;-79
2022/01/02 11:33:57;;;;;;;17.92;5.55;;;12.50;99.90;;;;;;4949678;28;20061;-78
2022/01/02 11:36:35;;;;;;;17.17;5.38;;;12.40;99.90;;;;;;4933778;28;20074;-79
2022/01/02 11:39:08;;;;;;;18.60;5.30;;;12.40;99.90;;;;;;4933288;29;20118;-79
2022/01/02 11:41:43;;;;;;;17.58;6.28;;;12.50;99.90;;;;;;4951262;28;20134;-79
2022/01/02 11:44:18;;;;;;;19.70;4.97;;;12.60;99.90;;;;;;4932881;28;20078;-80
2022/01/02 11:46:47;;;;;;;13.88;5.28;;;12.60;99.90;;;;;;4950690;28;20860;-79
2022/01/02 11:49:23;;;;;;;16.48;4.57;;;12.50;99.90;;;;;;4950365;28;20048;-79
2022/01/02 11:51:57;;;;;;;;;;;12.60;99.90;;;;;;4948227;28;20086;-79
2022/01/02 11:54:39;;;;;;;12.30;4.55;;;12.60;99.90;;;;;;4950515;28;19926;-80
2022/01/02 11:57:14;;;;;;;19.38;4.85;;;12.60;99.90;;;;;;4933858;29;20591;-78
2022/01/02 11:59:47;;;;;;;12.52;5.10;;;12.60;99.90;;;;;;4931532;29;20101;-79
2022/01/02 12:02:19;;;;;;;21.98;4.53;;;12.80;99.90;;;;;;4950606;29;20079;-80
2022/01/02 12:04:59;;;;;;;17.27;5.63;;;12.60;99.90;;;;;;4944316;29;20058;-80
2022/01/02 12:07:35;;;;;;;13.63;5.00;;;12.60;99.90;;;;;;4949229;28;20055;-79
2022/01/02 12:10:32;;;;;;;11.68;4.07;;;12.60;99.90;;;;;;4936192;29;20051;-80
2022/01/02 12:13:16;;;;;;;12.52;4.80;;;12.60;99.90;;;;;;4932038;29;20056;-80
2022/01/02 12:15:43;;;;;;;15.98;6.35;;;12.60;99.90;;;;;;4950403;28;20043;-79
2022/01/02 12:18:31;;;;;;;22.02;5.40;;;12.60;99.90;;;;;;4953443;28;20436;-79
2022/01/02 12:21:04;;;;;;;11.13;4.57;;;12.60;99.90;;;;;;4952196;28;20134;-79
2022/01/02 12:23:42;;;;;;;15.65;5.20;;;12.70;99.90;;;;;;4948544;28;20074;-78
2022/01/02 12:26:21;;;;;;;12.20;4.35;;;12.70;99.90;;;;;;4949444;28;20149;-79
2022/01/02 12:29:06;;;;;;;15.27;5.85;;;12.70;99.90;;;;;;4935055;29;20043;-78
2022/01/02 12:31:34;;;;;;;21.77;5.22;;;12.70;99.90;;;;;;4935422;28;20396;-77
2022/01/02 12:34:17;;;;;;;9.80;4.25;;;12.70;99.90;;;;;;4949666;28;20512;-76
2022/01/02 12:36:49;;;;;;;17.83;4.65;;;12.70;99.90;;;;;;4950062;28;20126;-76
2022/01/02 12:39:30;;;;;;;14.07;4.68;;;12.70;99.90;;;;;;4931939;28;20528;-77
2022/01/02 12:42:06;;;;;;;21.98;5.80;;;12.70;99.90;;;;;;4951705;28;20110;-76
2022/01/02 12:44:35;;;;;;;14.27;4.90;;;12.70;99.90;;;;;;4948752;28;20825;-76
2022/01/02 12:47:07;;;;;;;16.58;5.28;;;12.70;99.90;;;;;;4948338;28;20051;-76
2022/01/02 12:49:37;;;;;;;13.13;4.50;;;12.70;99.90;;;;;;4948826;29;20075;-76
2022/01/02 12:52:11;;;;;;;14.82;5.40;;;12.80;99.90;;;;;;4927284;29;20134;-76
2022/01/02 12:54:41;;;;;;;14.55;5.68;;;12.80;99.90;;;;;;4928741;29;20165;-77
2022/01/02 12:57:10;;;;;;;13.50;5.38;;;12.80;99.90;;;;;;4930161;28;20051;-77